Mize, Mississippi
Current Conditions -  °F | °C
As of 4:15 PM on Saturday 25 Oct 2014 (Local Time) from KPIB Reporting Station
Clear Clear  
Wind Chill: 81°   Ceiling: Unl
Heat Index: 81°   Visibility: 10mi
Dew Point: 57°   Wind: 6mph
Humidity: 45%   Direction: 360°N
Pressure: 30.08"   Gusts: NA
Location:  31.87°N, 89.56°W
Report Text: KPIB 252115Z AUTO 36005KT 10SM CLR 27/14 A3008 RMK AO1
Loading
Personal Weather Stations






























Interactive Weather Map
Tropical Storm Tracking
New forecast layout! Learn more

10-Day Weather Forecast

Advertisements
Track Severe Weather on mobile